Time;durP1;ratioP1;P1;durP2;ratioP2;P2;SDS_P1;SDS_P2;PMS_P1;PMS_P2;Temp;Humidity;BMP_temperature;BMP_pressure;BME280_temperature;BME280_humidity;BME280_pressure;Samples;Min_cycle;Max_cycle;Signal;HPM_P1;HPM_P2
2021/10/26 00:01:20;;;;;;;5.87;3.13;;;;;;;-0.23;75.63;96697.92;1772868;80;21135;-68
2021/10/26 00:03:47;;;;;;;6.57;3.27;;;;;;;-0.15;75.58;96691.75;1776509;80;21024;-68
2021/10/26 00:06:14;;;;;;;6.00;2.60;;;;;;;-0.06;75.29;96691.22;1767662;80;20974;-68
2021/10/26 00:08:40;;;;;;;6.53;3.10;;;;;;;-0.13;74.71;96692.67;1771181;80;21062;-68
2021/10/26 00:11:08;;;;;;;3.93;2.43;;;;;;;-0.17;74.94;96695.10;1772189;81;21037;-68
2021/10/26 00:13:34;;;;;;;5.03;3.13;;;;;;;-0.25;74.87;96694.38;1763923;80;21013;-68
2021/10/26 00:16:01;;;;;;;9.80;4.73;;;;;;;-0.33;75.93;96697.08;1763998;80;21108;-68
2021/10/26 00:18:28;;;;;;;10.23;5.80;;;;;;;-0.35;75.68;96691.32;1764012;80;21052;-68
2021/10/26 00:20:54;;;;;;;8.97;5.27;;;;;;;-0.47;76.34;96688.71;1767585;80;20988;-68
2021/10/26 00:23:21;;;;;;;11.73;7.30;;;;;;;-0.47;75.99;96686.54;1777022;81;21089;-69
2021/10/26 00:25:48;;;;;;;9.03;5.00;;;;;;;-0.48;76.19;96686.95;1778437;81;21081;-69
2021/10/26 00:28:14;;;;;;;5.73;3.37;;;;;;;-0.48;76.26;96683.06;1776324;81;21010;-68
2021/10/26 00:30:41;;;;;;;7.67;2.83;;;;;;;-0.50;75.91;96681.23;1769785;80;21015;-68
2021/10/26 00:33:08;;;;;;;7.53;3.13;;;;;;;-0.44;75.97;96680.17;1775593;80;20991;-68
2021/10/26 00:35:36;;;;;;;8.63;2.73;;;;;;;-0.33;76.25;96672.83;1768839;80;21092;-68
2021/10/26 00:38:03;;;;;;;7.43;3.47;;;;;;;-0.34;76.12;96675.84;1770853;80;21018;-68
2021/10/26 00:40:30;;;;;;;8.37;4.77;;;;;;;-0.41;76.92;96675.52;1766921;80;21025;-67
2021/10/26 00:42:56;;;;;;;5.77;3.30;;;;;;;-0.45;76.64;96675.83;1771940;80;21049;-68
2021/10/26 00:45:24;;;;;;;4.07;2.23;;;;;;;-0.48;76.39;96667.90;1768087;80;21040;-67
2021/10/26 00:47:50;;;;;;;4.53;2.53;;;;;;;-0.43;76.61;96663.78;1767670;80;21058;-67
2021/10/26 00:50:17;;;;;;;9.17;5.03;;;;;;;-0.40;76.45;96664.31;1765423;80;21007;-67
2021/10/26 00:52:45;;;;;;;7.63;5.30;;;;;;;-0.47;75.83;96664.50;1769348;80;21598;-68
2021/10/26 00:55:12;;;;;;;6.50;4.27;;;;;;;-0.67;75.30;96671.45;1769467;80;21077;-68
2021/10/26 00:57:40;;;;;;;5.60;2.90;;;;;;;-0.72;75.95;96667.36;1768407;80;21006;-68
2021/10/26 01:00:11;;;;;;;4.80;2.03;;;;;;;-0.66;75.98;96661.16;1775342;80;21083;-68
2021/10/26 01:02:40;;;;;;;4.57;2.53;;;;;;;-0.53;75.73;96657.75;1776884;80;21015;-68
2021/10/26 01:05:07;;;;;;;4.37;1.93;;;;;;;-0.48;75.77;96657.14;1773808;80;21178;-68
2021/10/26 01:07:35;;;;;;;5.77;3.53;;;;;;;-0.52;76.32;96651.77;1755050;80;21026;-68
2021/10/26 01:10:04;;;;;;;9.83;4.70;;;;;;;-0.52;76.23;96650.47;1771744;80;20986;-68
2021/10/26 01:12:30;;;;;;;9.80;3.90;;;;;;;-0.55;76.17;96641.28;1772141;80;21045;-68
2021/10/26 01:14:57;;;;;;;6.73;3.70;;;;;;;-0.59;76.16;96642.84;1741588;81;21065;-68
2021/10/26 01:17:24;;;;;;;4.10;2.10;;;;;;;-0.57;76.57;96645.50;1771586;80;21026;-68
2021/10/26 01:19:57;;;;;;;3.80;2.10;;;;;;;-0.61;75.91;96645.77;1765570;80;21062;-68
2021/10/26 01:22:27;;;;;;;5.67;2.35;;;;;;;-0.66;75.60;96640.42;1766767;80;21105;-68
2021/10/26 01:24:55;;;;;;;6.07;3.50;;;;;;;-0.71;75.75;96644.92;1774030;80;21092;-68
2021/10/26 01:27:23;;;;;;;9.60;4.43;;;;;;;-0.70;76.68;96642.82;1746099;80;21117;-68
2021/10/26 01:29:52;;;;;;;6.23;2.80;;;;;;;-0.71;76.65;96641.03;1769449;80;21572;-68
2021/10/26 01:32:20;;;;;;;4.30;2.40;;;;;;;-0.75;76.03;96637.86;1768317;80;21053;-68
2021/10/26 01:34:49;;;;;;;6.23;2.73;;;;;;;-0.67;76.29;96632.58;1767508;80;21087;-68
2021/10/26 01:37:17;;;;;;;5.47;3.43;;;;;;;-0.67;76.68;96633.88;1764496;79;21006;-68
2021/10/26 01:39:44;;;;;;;8.03;4.57;;;;;;;-0.72;76.99;96636.27;1764199;80;21097;-68
2021/10/26 01:42:11;;;;;;;3.83;2.00;;;;;;;-0.76;76.83;96628.30;1770477;80;21027;-68
2021/10/26 01:44:38;;;;;;;3.90;2.27;;;;;;;-0.78;76.66;96627.34;1772947;80;20997;-68
2021/10/26 01:47:07;;;;;;;5.00;2.87;;;;;;;-0.82;76.41;96631.94;1774985;81;20986;-67
2021/10/26 01:49:34;;;;;;;5.13;2.70;;;;;;;-0.93;77.42;96622.44;1777325;81;21492;-68
2021/10/26 01:52:01;;;;;;;3.07;2.30;;;;;;;-0.97;77.30;96626.58;1770296;80;21068;-69
2021/10/26 01:54:35;;;;;;;3.43;2.00;;;;;;;-1.00;76.83;96621.28;1773675;80;21074;-68
2021/10/26 01:56:57;;;;;;;4.63;2.10;;;;;;;-0.88;77.17;96615.73;1773029;80;20988;-68
2021/10/26 01:59:26;;;;;;;3.90;2.70;;;;;;;-0.82;77.18;96615.09;1773105;80;21019;-68
2021/10/26 02:01:53;;;;;;;5.97;2.47;;;;;;;-0.88;77.06;96603.66;1774629;80;21036;-68
2021/10/26 02:04:30;;;;;;;5.13;1.90;;;;;;;-0.85;77.76;96605.91;1776768;81;21006;-68
2021/10/26 02:06:57;;;;;;;3.20;1.90;;;;;;;-0.81;77.36;96600.02;1765252;80;21013;-68
2021/10/26 02:09:25;;;;;;;4.07;1.93;;;;;;;-0.92;77.13;96603.05;1769224;80;21054;-68
2021/10/26 02:11:52;;;;;;;3.67;1.67;;;;;;;-0.92;77.37;96597.86;1773776;79;21031;-68
2021/10/26 02:14:19;;;;;;;2.80;2.00;;;;;;;-0.89;77.20;96591.92;1774433;81;21011;-68
2021/10/26 02:16:46;;;;;;;3.87;2.10;;;;;;;-0.89;76.87;96600.99;1774391;81;21019;-66
2021/10/26 02:19:13;;;;;;;4.13;2.57;;;;;;;-0.94;76.92;96602.51;1771975;80;21007;-68
2021/10/26 02:21:41;;;;;;;4.80;2.70;;;;;;;-1.04;77.12;96600.36;1762113;80;21038;-68
2021/10/26 02:24:08;;;;;;;3.60;2.47;;;;;;;-1.17;77.29;96602.84;1775036;80;21007;-68
2021/10/26 02:26:36;;;;;;;4.80;2.37;;;;;;;-1.14;78.14;96600.38;1778380;81;21046;-68
2021/10/26 02:29:04;;;;;;;4.77;2.10;;;;;;;-1.14;77.57;96601.25;1777096;81;21035;-68
2021/10/26 02:31:33;;;;;;;4.97;1.90;;;;;;;-1.09;77.83;96597.56;1772464;80;21074;-68
2021/10/26 02:34:00;;;;;;;5.93;2.30;;;;;;;-1.08;77.69;96600.65;1770223;80;21148;-68
2021/10/26 02:36:27;;;;;;;5.17;2.70;;;;;;;-1.00;77.36;96600.97;1775655;81;21015;-68
2021/10/26 02:38:54;;;;;;;5.60;3.43;;;;;;;-0.99;77.71;96601.02;1764148;80;21053;-68
2021/10/26 02:41:21;;;;;;;7.80;3.90;;;;;;;-0.98;77.43;96600.22;1768819;80;21013;-68
2021/10/26 02:43:47;;;;;;;6.77;5.70;;;;;;;-1.01;77.05;96593.58;1764142;80;21040;-67
2021/10/26 02:46:15;;;;;;;8.33;6.10;;;;;;;-1.01;76.96;96594.87;1776166;80;20991;-68
2021/10/26 02:48:42;;;;;;;6.00;4.27;;;;;;;-1.05;77.08;96596.89;1764213;79;21021;-68
2021/10/26 02:51:10;;;;;;;4.87;3.27;;;;;;;-1.05;77.68;96596.01;1769146;80;21075;-68
2021/10/26 02:53:37;;;;;;;2.37;1.60;;;;;;;-1.08;77.93;96587.70;1776462;80;21015;-68
2021/10/26 02:56:06;;;;;;;3.07;1.80;;;;;;;-1.01;77.83;96592.70;1772874;80;21027;-68
2021/10/26 02:58:32;;;;;;;3.93;2.10;;;;;;;-0.93;77.68;96584.87;1770713;80;21035;-68
2021/10/26 03:00:59;;;;;;;4.17;2.03;;;;;;;-0.87;77.26;96584.69;1770583;80;21283;-68
2021/10/26 03:03:26;;;;;;;2.40;1.47;;;;;;;-0.92;76.83;96585.33;1767953;81;20995;-67
2021/10/26 03:05:53;;;;;;;6.37;3.07;;;;;;;-0.98;76.48;96583.38;1773207;80;21036;-69
2021/10/26 03:08:19;;;;;;;11.60;5.87;;;;;;;-1.13;77.29;96584.03;1774525;80;21085;-68
2021/10/26 03:10:47;;;;;;;6.37;4.53;;;;;;;-1.27;77.39;96581.26;1768727;80;21023;-67
2021/10/26 03:13:16;;;;;;;4.97;1.90;;;;;;;-1.22;77.77;96579.75;1766918;80;21014;-68
2021/10/26 03:15:43;;;;;;;4.10;2.17;;;;;;;-1.13;78.05;96580.15;1766735;80;20995;-68
2021/10/26 03:18:12;;;;;;;3.67;1.80;;;;;;;-1.01;77.77;96574.57;1777166;80;21572;-68
2021/10/26 03:20:40;;;;;;;4.77;2.63;;;;;;;-1.04;77.37;96574.03;1775315;81;21023;-68
2021/10/26 03:23:08;;;;;;;4.37;2.10;;;;;;;-1.12;77.75;96573.72;1768087;79;21068;-68
2021/10/26 03:25:35;;;;;;;3.03;2.20;;;;;;;-1.10;77.80;96572.08;1773321;80;21006;-67
2021/10/26 03:28:02;;;;;;;2.87;1.67;;;;;;;-1.10;77.49;96569.91;1770221;80;20983;-68
2021/10/26 03:30:29;;;;;;;3.80;2.23;;;;;;;-1.17;78.24;96575.23;1768738;80;21141;-67
2021/10/26 03:32:58;;;;;;;3.87;2.37;;;;;;;-1.15;78.35;96567.54;1773674;80;21480;-67
2021/10/26 03:35:26;;;;;;;5.47;2.10;;;;;;;-1.11;78.25;96566.83;1770863;80;21109;-68
2021/10/26 03:37:53;;;;;;;3.03;1.60;;;;;;;-1.07;77.71;96566.56;1767051;80;21055;-68
2021/10/26 03:40:20;;;;;;;2.37;1.30;;;;;;;-1.13;77.10;96568.49;1772918;81;21567;-68
2021/10/26 03:42:47;;;;;;;41.47;17.97;;;;;;;-1.17;76.89;96572.64;1770120;80;21113;-68
2021/10/26 03:45:14;;;;;;;227.90;89.60;;;;;;;-1.37;77.10;96569.62;1771911;80;21018;-68
2021/10/26 03:47:48;;;;;;;225.97;82.47;;;;;;;-1.58;77.49;96571.76;1771661;80;21034;-67
2021/10/26 03:50:15;;;;;;;36.20;15.77;;;;;;;-1.66;77.64;96565.38;1770002;80;21077;-68
2021/10/26 03:52:42;;;;;;;33.77;14.87;;;;;;;-1.67;77.62;96566.59;1774406;81;21047;-68
2021/10/26 03:55:11;;;;;;;5.03;3.00;;;;;;;-1.68;79.03;96566.13;1768871;80;21025;-68
2021/10/26 03:57:39;;;;;;;4.80;2.60;;;;;;;-1.61;79.48;96565.16;1763955;80;21587;-68
2021/10/26 04:00:08;;;;;;;4.70;2.63;;;;;;;-1.50;79.20;96561.73;1767667;81;21033;-68
2021/10/26 04:02:42;;;;;;;8.33;3.67;;;;;;;-1.39;79.31;96558.31;1766401;80;21068;-68
2021/10/26 04:05:26;;;;;;;25.07;10.83;;;;;;;-1.37;78.94;96554.09;1773266;80;21007;-68
2021/10/26 04:07:53;;;;;;;50.10;24.37;;;;;;;-1.30;78.63;96552.23;1763531;80;21023;-68
2021/10/26 04:10:19;;;;;;;35.23;17.17;;;;;;;-1.23;77.90;96552.09;1770963;80;21060;-68
2021/10/26 04:12:45;;;;;;;17.47;7.43;;;;;;;-1.25;77.33;96548.14;1766265;80;21004;-68
2021/10/26 04:15:11;;;;;;;26.70;10.80;;;;;;;-1.31;77.35;96552.66;1767077;80;21103;-68
2021/10/26 04:17:38;;;;;;;10.10;4.47;;;;;;;-1.46;77.73;96551.09;1765734;80;21010;-68
2021/10/26 04:20:06;;;;;;;6.57;3.50;;;;;;;-1.53;77.82;96546.97;1766511;80;21011;-68
2021/10/26 04:22:33;;;;;;;2.93;1.90;;;;;;;-1.49;78.22;96549.67;1769985;80;20985;-67
2021/10/26 04:24:59;;;;;;;3.67;1.90;;;;;;;-1.40;78.34;96547.08;1759997;80;21054;-69
2021/10/26 04:27:27;;;;;;;32.17;11.10;;;;;;;-1.27;78.39;96545.01;1764156;80;21126;-68
2021/10/26 04:29:53;;;;;;;8.97;3.03;;;;;;;-1.31;77.97;96546.18;1769067;80;21007;-68
2021/10/26 04:32:20;;;;;;;11.37;4.80;;;;;;;-1.28;77.54;96543.25;1776794;81;21066;-67
2021/10/26 04:34:49;;;;;;;45.63;20.10;;;;;;;-1.36;77.78;96546.78;1769353;80;21018;-68
2021/10/26 04:37:16;;;;;;;19.73;6.97;;;;;;;-1.46;76.99;96541.66;1767485;80;21158;-68
2021/10/26 04:39:43;;;;;;;20.07;8.60;;;;;;;-1.53;77.23;96540.91;1776521;81;21060;-68
2021/10/26 04:42:10;;;;;;;26.80;11.40;;;;;;;-1.46;77.98;96536.86;1769261;80;21013;-68
2021/10/26 04:44:38;;;;;;;7.67;2.30;;;;;;;-1.47;77.36;96538.57;1775057;81;20988;-68
2021/10/26 04:47:06;;;;;;;3.50;2.20;;;;;;;-1.54;76.96;96541.70;1770982;80;21085;-65
2021/10/26 04:49:33;;;;;;;4.27;2.23;;;;;;;-1.58;77.44;96533.36;1779583;81;21003;-68
2021/10/26 04:52:01;;;;;;;2.60;1.60;;;;;;;-1.62;77.50;96528.44;1776058;80;20983;-68
2021/10/26 04:54:29;;;;;;;3.20;1.57;;;;;;;-1.61;78.76;96531.94;1773114;80;21078;-68
2021/10/26 04:56:57;;;;;;;4.70;2.40;;;;;;;-1.64;78.03;96530.10;1769403;80;21006;-67
2021/10/26 04:59:43;;;;;;;28.20;10.07;;;;;;;-1.68;78.98;96524.31;1767851;80;21543;-67
2021/10/26 05:02:09;;;;;;;71.13;22.80;;;;;;;-1.57;79.03;96535.11;1764735;80;21108;-68
2021/10/26 05:04:38;;;;;;;38.17;14.13;;;;;;;-1.53;78.36;96526.26;1770527;80;21021;-68
2021/10/26 05:07:05;;;;;;;36.80;13.00;;;;;;;-1.49;78.05;96527.26;1773897;81;21032;-68
2021/10/26 05:09:31;;;;;;;23.90;10.07;;;;;;;-1.53;77.65;96524.09;1764619;80;21511;-68
2021/10/26 05:11:59;;;;;;;19.57;9.63;;;;;;;-1.62;77.54;96521.09;1779451;81;21003;-68
2021/10/26 05:14:25;;;;;;;15.33;6.43;;;;;;;-1.62;78.00;96527.56;1778478;81;21019;-68
2021/10/26 05:17:13;;;;;;;8.30;3.40;;;;;;;-1.68;78.29;96531.19;1774725;80;21106;-69
2021/10/26 05:19:58;;;;;;;2.87;1.50;;;;;;;-1.66;78.49;96526.94;1769366;80;21066;-69
2021/10/26 05:22:44;;;;;;;9.13;4.33;;;;;;;-1.65;78.15;96529.61;1706621;80;20989;-69
2021/10/26 05:25:16;;;;;;;9.37;4.53;;;;;;;-1.71;77.82;96530.66;1767596;79;21122;-69
2021/10/26 05:27:47;;;;;;;60.87;23.43;;;;;;;-1.83;79.06;96535.28;1761238;80;21116;-69
2021/10/26 05:30:14;;;;;;;89.07;36.37;;;;;;;-1.97;79.27;96536.86;1771311;80;20996;-66
2021/10/26 05:32:41;;;;;;;9.90;4.67;;;;;;;-1.98;78.92;96541.53;1758133;80;21056;-69
2021/10/26 05:35:08;;;;;;;17.53;7.30;;;;;;;-1.93;79.87;96539.58;1753379;80;21145;-70
2021/10/26 05:37:36;;;;;;;22.47;10.97;;;;;;;-1.88;80.40;96540.25;1765742;80;20981;-69
2021/10/26 05:40:06;;;;;;;34.43;14.23;;;;;;;-1.70;80.19;96536.70;1774508;80;20971;-69
2021/10/26 05:42:33;;;;;;;41.13;18.20;;;;;;;-1.55;80.07;96539.95;1770677;80;21127;-69
2021/10/26 05:45:00;;;;;;;18.93;8.60;;;;;;;-1.39;79.51;96541.06;1776541;81;21016;-69
2021/10/26 05:47:27;;;;;;;23.03;12.27;;;;;;;-1.34;79.15;96534.80;1770985;80;21006;-68
2021/10/26 05:49:55;;;;;;;27.40;12.40;;;;;;;-1.33;79.09;96539.17;1775951;80;21159;-69
2021/10/26 05:52:23;;;;;;;62.10;28.83;;;;;;;-1.35;78.75;96545.56;1766613;80;21536;-69
2021/10/26 05:54:49;;;;;;;55.67;28.67;;;;;;;-1.26;78.77;96542.50;1761436;80;21053;-70
2021/10/26 05:57:16;;;;;;;22.50;11.20;;;;;;;-1.21;78.66;96549.14;1764290;80;21060;-70
2021/10/26 05:59:43;;;;;;;11.17;4.73;;;;;;;-1.16;79.22;96548.92;1765348;80;21001;-70
2021/10/26 06:02:09;;;;;;;4.37;2.57;;;;;;;-1.08;78.86;96554.03;1773122;80;21057;-69
2021/10/26 06:04:37;;;;;;;28.93;13.10;;;;;;;-1.03;78.48;96541.24;1776275;81;21070;-70
2021/10/26 06:07:04;;;;;;;12.30;5.63;;;;;;;-1.00;79.45;96542.69;1774451;81;21019;-69
2021/10/26 06:09:34;;;;;;;4.80;2.37;;;;;;;-0.94;79.57;96547.69;1769259;80;20984;-69
2021/10/26 06:12:02;;;;;;;23.07;12.63;;;;;;;-0.83;80.06;96543.35;1772844;81;21047;-69
2021/10/26 06:14:29;;;;;;;18.63;10.07;;;;;;;-0.64;79.84;96547.16;1769415;80;21043;-68
2021/10/26 06:16:59;;;;;;;29.70;16.37;;;;;;;-0.58;79.81;96548.72;1777404;81;21006;-69
2021/10/26 06:19:24;;;;;;;22.47;12.87;;;;;;;-0.36;79.80;96552.13;1770044;80;20980;-69
2021/10/26 06:21:51;;;;;;;6.73;4.17;;;;;;;-0.18;79.20;96545.05;1774293;80;21535;-68
2021/10/26 06:24:20;;;;;;;2.30;1.67;;;;;;;-0.26;78.65;96542.58;1771765;80;21014;-68
2021/10/26 06:26:46;;;;;;;3.67;2.10;;;;;;;-0.23;78.73;96546.59;1771312;80;21037;-69
2021/10/26 06:29:13;;;;;;;3.90;2.10;;;;;;;-0.23;78.52;96546.20;1766775;80;21520;-69
2021/10/26 06:31:41;;;;;;;2.27;1.47;;;;;;;-0.28;78.84;96541.25;1768498;80;21006;-69
2021/10/26 06:34:09;;;;;;;5.97;3.17;;;;;;;-0.24;78.97;96548.72;1772487;80;21063;-70
2021/10/26 06:36:36;;;;;;;9.10;4.63;;;;;;;-0.20;80.20;96546.73;1775475;80;21027;-69
2021/10/26 06:39:04;;;;;;;8.70;5.30;;;;;;;-0.02;80.04;96549.13;1771864;80;21041;-69
2021/10/26 06:41:31;;;;;;;8.67;5.20;;;;;;;0.12;80.12;96545.31;1773603;81;21091;-69
2021/10/26 06:44:02;;;;;;;9.00;5.43;;;;;;;0.19;80.03;96549.02;1768849;80;21088;-69
2021/10/26 06:46:42;;;;;;;10.27;5.80;;;;;;;0.26;79.72;96548.84;1776929;80;21070;-69
2021/10/26 06:49:29;;;;;;;11.20;5.07;;;;;;;0.35;79.59;96547.86;1725385;83;21033;-69
2021/10/26 06:52:15;;;;;;;11.03;6.07;;;;;;;0.45;79.27;96552.55;1726694;82;21507;-69
2021/10/26 06:55:00;;;;;;;13.57;8.20;;;;;;;0.51;79.13;96545.00;1755488;80;20983;-69
2021/10/26 06:57:49;;;;;;;14.13;8.33;;;;;;;0.62;79.23;96546.66;1774254;81;21058;-68
2021/10/26 07:00:27;;;;;;;16.93;9.07;;;;;;;0.80;79.19;96546.41;1664711;85;21053;-69
2021/10/26 07:03:11;;;;;;;14.63;8.10;;;;;;;0.93;79.10;96544.69;1772899;81;21046;-69
2021/10/26 07:05:56;;;;;;;17.27;9.70;;;;;;;1.04;79.14;96532.95;1778540;81;21094;-69
2021/10/26 07:08:32;;;;;;;25.63;9.83;;;;;;;1.19;78.90;96539.50;1775600;81;21049;-69
2021/10/26 07:11:18;;;;;;;24.70;12.20;;;;;;;1.29;78.57;96538.54;1776867;81;21002;-70
2021/10/26 07:13:44;;;;;;;19.13;10.47;;;;;;;1.44;78.66;96536.85;1770461;80;21313;-68
2021/10/26 07:16:11;;;;;;;15.83;9.77;;;;;;;1.63;78.92;96528.31;1775146;80;21095;-69
2021/10/26 07:18:38;;;;;;;18.83;10.53;;;;;;;1.77;78.63;96528.75;1766709;80;21534;-69
2021/10/26 07:21:05;;;;;;;21.73;10.83;;;;;;;1.88;78.07;96526.04;1765286;80;21022;-69
2021/10/26 07:23:37;;;;;;;23.87;11.68;;;;;;;1.97;77.72;96514.61;1767542;80;21529;-69
2021/10/26 07:26:23;;;;;;;29.00;13.93;;;;;;;2.05;77.60;96525.25;1770899;80;20974;-69
2021/10/26 07:28:49;;;;;;;23.57;11.80;;;;;;;2.25;77.99;96516.28;1778029;81;20999;-70
2021/10/26 07:31:18;;;;;;;19.70;10.60;;;;;;;2.48;77.80;96514.31;1773471;80;21037;-69
2021/10/26 07:33:45;;;;;;;17.57;10.60;;;;;;;2.66;77.38;96506.53;1767849;80;21032;-69
2021/10/26 07:36:12;;;;;;;18.50;11.20;;;;;;;2.77;77.05;96507.29;1771629;81;21035;-69
2021/10/26 07:38:41;;;;;;;19.10;10.83;;;;;;;2.94;77.07;96503.79;1766659;80;21031;-69
2021/10/26 07:41:09;;;;;;;19.93;9.77;;;;;;;3.10;76.63;96505.08;1741943;80;21009;-68
2021/10/26 07:43:55;;;;;;;20.43;10.40;;;;;;;3.28;76.01;96502.47;1764109;80;21068;-68
2021/10/26 07:46:40;;;;;;;18.80;11.13;;;;;;;3.53;75.46;96502.59;1770365;80;21018;-68
2021/10/26 07:49:08;;;;;;;20.03;10.83;;;;;;;3.75;74.88;96503.55;1768957;80;20993;-69
2021/10/26 07:51:36;;;;;;;14.53;9.20;;;;;;;3.89;74.18;96496.91;1764329;80;21060;-68
2021/10/26 07:54:04;;;;;;;21.60;11.20;;;;;;;4.12;73.57;96489.98;1771975;80;20990;-68
2021/10/26 07:56:31;;;;;;;20.47;10.63;;;;;;;4.27;72.82;96495.52;1767741;81;20972;-69
2021/10/26 07:58:59;;;;;;;19.23;9.27;;;;;;;4.43;73.02;96494.52;1764182;81;21017;-69
2021/10/26 08:01:26;;;;;;;14.60;8.83;;;;;;;4.58;72.92;96493.94;1765307;81;21391;-69
2021/10/26 08:03:57;;;;;;;18.67;7.73;;;;;;;4.72;72.06;96489.42;1760670;80;21613;-70
2021/10/26 08:06:27;;;;;;;20.00;7.80;;;;;;;4.92;71.97;96492.83;1773302;80;21000;-69
2021/10/26 08:08:54;;;;;;;14.80;7.77;;;;;;;5.07;71.51;96490.48;1776507;81;21087;-67
2021/10/26 08:11:21;;;;;;;11.03;6.80;;;;;;;5.26;71.15;96479.87;1777200;81;20987;-67
2021/10/26 08:13:49;;;;;;;15.10;7.20;;;;;;;5.54;70.59;96477.25;1765061;80;21043;-67
2021/10/26 08:16:17;;;;;;;12.13;7.03;;;;;;;5.85;69.68;96477.73;1767777;80;21514;-67
2021/10/26 08:18:45;;;;;;;11.43;6.57;;;;;;;6.17;68.81;96477.29;1768393;81;21027;-67
2021/10/26 08:21:14;;;;;;;12.77;6.47;;;;;;;6.43;67.91;96476.31;1769609;80;21517;-67
2021/10/26 08:23:43;;;;;;;15.97;6.30;;;;;;;6.68;67.46;96476.16;1775957;80;21019;-66
2021/10/26 08:29:09;;;;;;;12.20;7.20;;;;;;;7.14;65.25;96470.04;1764009;80;21516;-65
2021/10/26 08:31:37;;;;;;;9.33;5.90;;;;;;;7.29;66.20;96473.23;1771998;80;21114;-66
2021/10/26 08:34:07;;;;;;;9.47;5.20;;;;;;;7.44;65.47;96465.47;1774150;81;21031;-66
2021/10/26 08:36:31;;;;;;;10.10;5.33;;;;;;;7.68;63.32;96459.94;1765983;80;21070;-66
2021/10/26 08:38:59;;;;;;;8.53;4.67;;;;;;;7.91;63.42;96460.08;1776819;80;21066;-66
2021/10/26 08:41:28;;;;;;;6.53;4.13;;;;;;;7.93;62.16;96463.59;1766410;80;21047;-66
2021/10/26 08:43:56;;;;;;;7.67;4.57;;;;;;;8.12;62.08;96458.02;1773826;80;21086;-67
2021/10/26 08:46:24;;;;;;;6.40;4.33;;;;;;;8.24;59.37;96462.02;1771628;80;21019;-67
2021/10/26 08:48:54;;;;;;;8.77;3.53;;;;;;;8.42;58.76;96458.17;1776130;81;21481;-66
2021/10/26 08:51:31;;;;;;;8.93;4.80;;;;;;;8.66;58.98;96456.48;1760819;80;21002;-67
2021/10/26 08:53:58;;;;;;;5.03;2.97;;;;;;;8.99;58.92;96451.72;1775851;81;21540;-67
2021/10/26 08:56:29;;;;;;;18.03;12.80;;;;;;;9.25;57.35;96442.54;1755383;80;21005;-66
2021/10/26 08:59:00;;;;;;;7.30;3.80;;;;;;;9.50;58.27;96443.41;1766829;80;21019;-66
2021/10/26 09:01:29;;;;;;;14.70;8.77;;;;;;;9.67;56.79;96449.09;1769816;80;21013;-66
2021/10/26 09:04:08;;;;;;;9.37;5.93;;;;;;;9.87;54.01;96446.42;1775747;81;21488;-66
2021/10/26 09:06:45;;;;;;;6.63;2.93;;;;;;;10.07;55.12;96443.28;1775897;81;21011;-65
2021/10/26 09:09:18;;;;;;;10.00;5.13;;;;;;;10.29;54.54;96440.17;1771531;80;21077;-65
2021/10/26 09:18:25;;;;;;;6.93;3.90;;;;;;;10.86;49.91;96444.28;1769850;80;20998;-66
2021/10/26 09:20:54;;;;;;;9.43;4.00;;;;;;;10.99;50.52;96438.06;1765176;80;21540;-66
2021/10/26 09:23:27;;;;;;;11.53;4.40;;;;;;;11.17;50.08;96438.38;1778045;81;21062;-66
2021/10/26 09:25:58;;;;;;;9.37;3.20;;;;;;;11.24;47.04;96440.95;1771869;80;21007;-67
2021/10/26 09:28:27;;;;;;;8.93;3.00;;;;;;;11.40;48.53;96436.41;1766988;80;21031;-68
2021/10/26 09:31:05;;;;;;;12.23;3.30;;;;;;;11.60;49.01;96434.92;1770745;80;21158;-69
2021/10/26 09:33:39;;;;;;;6.30;3.17;;;;;;;11.77;47.81;96431.22;1776305;81;21023;-68
2021/10/26 09:36:30;;;;;;;6.53;3.00;;;;;;;11.92;47.77;96429.81;1776589;80;21082;-68
2021/10/26 09:39:10;;;;;;;11.60;3.60;;;;;;;12.08;45.67;96430.06;1767814;80;21019;-68
2021/10/26 09:42:00;;;;;;;9.80;3.50;;;;;;;12.24;46.69;96425.91;1767053;80;22436;-68
2021/10/26 09:44:29;;;;;;;10.00;3.23;;;;;;;12.35;45.57;96424.03;1773402;80;21833;-68
2021/10/26 09:47:02;;;;;;;7.33;3.47;;;;;;;12.48;43.85;96420.78;1773750;80;21516;-68
2021/10/26 09:49:36;;;;;;;7.83;3.43;;;;;;;12.61;46.05;96425.01;1767450;80;21018;-68
2021/10/26 09:52:29;;;;;;;13.70;4.10;;;;;;;12.75;45.01;96412.89;1765359;80;21013;-68
2021/10/26 09:57:59;;;;;;;6.53;3.13;;;;;;;12.99;43.97;96410.35;1777146;81;21568;-67
2021/10/26 10:00:39;;;;;;;7.03;3.40;;;;;;;13.14;41.27;96403.48;1775995;81;21517;-67
2021/10/26 10:03:11;;;;;;;6.10;3.27;;;;;;;13.29;42.59;96398.88;1768942;80;21010;-67
2021/10/26 10:05:56;;;;;;;13.35;3.33;;;;;;;13.57;43.43;96390.02;1767657;80;21533;-67
2021/10/26 10:08:34;;;;;;;8.18;3.42;;;;;;;13.98;41.76;96389.23;1764099;80;21049;-68
2021/10/26 10:11:20;;;;;;;7.00;3.50;;;;;;;14.43;38.67;96385.23;1770593;80;20993;-68
2021/10/26 10:13:54;;;;;;;6.80;3.40;;;;;;;14.82;38.45;96377.81;1774171;80;21560;-68
2021/10/26 10:16:23;;;;;;;6.67;3.22;;;;;;;15.31;37.55;96379.30;1771542;80;21487;-68
2021/10/26 10:18:52;;;;;;;5.90;3.10;;;;;;;15.71;37.42;96371.67;1770303;81;21027;-68
2021/10/26 10:21:29;;;;;;;5.12;2.98;;;;;;;16.19;36.30;96372.58;1777253;81;21054;-68
2021/10/26 10:23:59;;;;;;;8.53;3.27;;;;;;;16.69;37.98;96356.91;1774633;80;21133;-68
2021/10/26 10:26:28;;;;;;;9.70;3.30;;;;;;;17.02;34.40;96355.48;1777408;80;21023;-69
2021/10/26 10:28:57;;;;;;;7.20;3.35;;;;;;;17.26;33.43;96344.02;1776504;80;21573;-68
2021/10/26 10:31:27;;;;;;;5.80;3.33;;;;;;;17.45;33.59;96338.93;1765447;80;21468;-68
2021/10/26 10:33:57;;;;;;;5.97;3.47;;;;;;;17.72;31.15;96336.25;1768560;80;21556;-69
2021/10/26 10:36:25;;;;;;;17.15;3.58;;;;;;;17.88;31.36;96334.80;1770688;81;21516;-68
2021/10/26 10:38:55;;;;;;;8.20;3.90;;;;;;;18.16;30.98;96329.80;1771953;80;21057;-68
2021/10/26 10:41:38;;;;;;;5.47;3.42;;;;;;;18.20;30.81;96324.77;1767252;80;21053;-68
2021/10/26 10:44:24;;;;;;;7.47;3.58;;;;;;;18.57;31.23;96318.91;1772378;80;21077;-68
2021/10/26 10:46:59;;;;;;;5.20;3.00;;;;;;;18.68;30.36;96324.30;1772283;80;21027;-68
2021/10/26 10:49:27;;;;;;;12.53;3.37;;;;;;;18.72;30.65;96322.79;1768757;80;21017;-68
2021/10/26 10:52:10;;;;;;;5.67;3.17;;;;;;;18.85;29.73;96326.32;1771438;81;21043;-68
2021/10/26 10:54:48;;;;;;;8.33;4.20;;;;;;;19.08;30.03;96319.61;1774432;80;21455;-69
2021/10/26 10:57:33;;;;;;;5.25;3.47;;;;;;;19.23;29.33;96328.34;1769937;80;21570;-68
2021/10/26 11:00:05;;;;;;;6.72;3.60;;;;;;;19.57;29.94;96325.58;1774941;81;21015;-68
2021/10/26 11:02:42;;;;;;;8.20;4.17;;;;;;;19.98;29.40;96322.98;1774712;81;20988;-69
2021/10/26 11:05:35;;;;;;;4.58;3.52;;;;;;;20.06;28.79;96310.58;1773146;80;21062;-69
2021/10/26 11:08:06;;;;;;;;;;;;;;;20.24;28.07;96304.38;1772855;80;20986;-69
2021/10/26 11:10:54;;;;;;;6.53;4.25;;;;;;;20.15;29.56;96303.92;1769003;80;20109;-69
2021/10/26 11:13:25;;;;;;;4.62;3.98;;;;;;;20.38;28.94;96300.19;1765749;80;21103;-68
2021/10/26 11:15:56;;;;;;;6.05;3.95;;;;;;;20.73;28.06;96295.41;1768311;80;21052;-69
2021/10/26 11:18:49;;;;;;;6.15;3.50;;;;;;;21.00;28.41;96295.04;1770652;80;21027;-68
2021/10/26 11:21:28;;;;;;;11.12;4.17;;;;;;;20.93;26.46;96291.77;1767635;80;21041;-68
2021/10/26 11:24:06;;;;;;;6.33;4.25;;;;;;;21.32;26.76;96285.89;1766853;80;21495;-68
2021/10/26 11:26:42;;;;;;;8.58;4.17;;;;;;;21.51;26.06;96284.02;1768880;80;21559;-68
2021/10/26 11:29:13;;;;;;;6.92;4.28;;;;;;;21.56;27.25;96283.80;1765421;80;20988;-68
2021/10/26 11:31:51;;;;;;;11.03;4.47;;;;;;;21.47;26.97;96281.11;1770735;80;21563;-68
2021/10/26 11:34:26;;;;;;;6.83;4.15;;;;;;;21.47;25.15;96273.06;1775796;80;21592;-68
2021/10/26 11:37:07;;;;;;;6.10;4.25;;;;;;;21.72;25.74;96270.43;1773278;80;21095;-69
2021/10/26 11:39:38;;;;;;;9.05;4.87;;;;;;;21.77;24.81;96269.27;1776248;80;21087;-68
2021/10/26 11:42:12;;;;;;;6.92;4.37;;;;;;;21.90;26.51;96271.28;1770231;80;21092;-69
2021/10/26 11:44:39;;;;;;;11.30;4.45;;;;;;;21.90;25.99;96270.84;1770948;80;21015;-69
2021/10/26 11:47:07;;;;;;;7.17;4.45;;;;;;;21.93;25.29;96269.80;1778341;81;21026;-69
2021/10/26 11:49:34;;;;;;;10.70;5.15;;;;;;;21.97;26.43;96260.61;1765812;81;20966;-69
2021/10/26 11:52:07;;;;;;;12.55;4.45;;;;;;;22.37;25.02;96261.19;1770472;80;21006;-69
2021/10/26 11:54:48;;;;;;;9.60;5.08;;;;;;;22.52;25.03;96263.52;1773234;81;21026;-69
2021/10/26 11:57:20;;;;;;;5.05;4.28;;;;;;;22.78;24.61;96256.66;1765539;80;21544;-69
2021/10/26 11:59:47;;;;;;;13.20;4.95;;;;;;;23.25;25.10;96253.97;1761807;80;21513;-67